createdAt,value
2018-09-02T00:02:11.904Z,20.30
2018-09-02T00:04:40.444Z,20.40
2018-09-02T00:07:09.093Z,20.30
2018-09-02T00:09:37.604Z,20.30
2018-09-02T00:12:06.130Z,20.40
2018-09-02T00:14:34.657Z,20.40
2018-09-02T00:17:03.176Z,20.40
2018-09-02T00:19:32.776Z,20.40
2018-09-02T00:22:01.464Z,20.30
2018-09-02T00:24:29.969Z,20.30
2018-09-02T00:26:58.544Z,20.30
2018-09-02T00:29:27.047Z,20.30
2018-09-02T00:31:55.568Z,20.30
2018-09-02T00:34:24.116Z,20.30
2018-09-02T00:36:52.661Z,20.20
2018-09-02T00:39:21.335Z,20.20
2018-09-02T00:41:50.013Z,20.20
2018-09-02T00:44:18.627Z,20.20
2018-09-02T00:46:47.217Z,20.20
2018-09-02T00:49:15.765Z,20.20
2018-09-02T00:51:45.376Z,20.20
2018-09-02T00:54:13.972Z,20.20
2018-09-02T00:56:42.647Z,20.20
2018-09-02T00:59:11.378Z,20.20
2018-09-02T01:01:39.996Z,20.20
2018-09-02T01:04:08.708Z,20.10
2018-09-02T01:06:37.312Z,20.10
2018-09-02T01:09:07.228Z,20.10
2018-09-02T01:11:35.871Z,20.10
2018-09-02T01:14:04.538Z,20.00
2018-09-02T01:16:33.111Z,20.00
2018-09-02T01:19:02.268Z,20.00
2018-09-02T01:21:30.824Z,19.90
2018-09-02T01:23:59.318Z,19.90
2018-09-02T01:26:28.099Z,19.90
2018-09-02T01:28:56.617Z,19.90
2018-09-02T01:31:26.134Z,19.90
2018-09-02T01:33:54.612Z,19.90
2018-09-02T01:36:23.320Z,19.90
2018-09-02T01:38:52.815Z,19.90
2018-09-02T01:41:21.500Z,19.80
2018-09-02T01:43:50.059Z,19.80
2018-09-02T01:46:18.680Z,19.80
2018-09-02T01:48:47.267Z,19.80
2018-09-02T01:51:15.925Z,19.80
2018-09-02T01:53:44.476Z,19.80
2018-09-02T01:56:13.001Z,19.80
2018-09-02T01:58:41.643Z,19.80
2018-09-02T02:01:10.144Z,19.80
2018-09-02T02:03:38.672Z,19.80
2018-09-02T02:06:07.364Z,19.80
2018-09-02T02:08:35.932Z,19.70
2018-09-02T02:11:04.424Z,19.70
2018-09-02T02:13:32.899Z,19.70
2018-09-02T02:16:01.493Z,19.60
2018-09-02T02:18:30.717Z,19.50
2018-09-02T02:20:59.223Z,19.40
2018-09-02T02:23:27.779Z,19.40
2018-09-02T02:25:56.332Z,19.30
2018-09-02T02:28:24.954Z,19.20
2018-09-02T02:30:53.510Z,19.20
2018-09-02T02:33:22.230Z,19.20
2018-09-02T02:35:50.803Z,19.10
2018-09-02T02:38:19.382Z,19.10
2018-09-02T02:40:47.919Z,19.10
2018-09-02T02:43:16.726Z,19.10
2018-09-02T02:45:45.477Z,19.00
2018-09-02T02:48:14.278Z,19.00
2018-09-02T02:50:43.052Z,19.00
2018-09-02T02:53:11.656Z,19.00
2018-09-02T02:55:41.275Z,19.10
2018-09-02T02:58:10.003Z,19.10
2018-09-02T03:00:38.619Z,19.10
2018-09-02T03:03:07.208Z,19.10
2018-09-02T03:05:36.215Z,19.10
2018-09-02T03:08:04.803Z,19.10
2018-09-02T03:10:33.409Z,19.10
2018-09-02T03:13:01.917Z,19.10
2018-09-02T03:15:30.435Z,19.10
2018-09-02T03:17:58.924Z,19.00
2018-09-02T03:20:27.458Z,18.90
2018-09-02T03:22:56.945Z,18.90
2018-09-02T03:25:26.456Z,18.80
2018-09-02T03:27:55.019Z,18.70
2018-09-02T03:30:24.535Z,18.70
2018-09-02T03:32:53.076Z,18.60
2018-09-02T03:35:22.147Z,18.50
2018-09-02T03:37:51.872Z,18.40
2018-09-02T03:40:20.469Z,18.30
2018-09-02T03:42:49.007Z,18.20
2018-09-02T03:45:17.525Z,18.10
2018-09-02T03:47:46.070Z,18.10
2018-09-02T03:50:15.575Z,18.00
2018-09-02T03:52:44.284Z,18.00
2018-09-02T03:55:13.950Z,18.10
2018-09-02T03:57:42.523Z,18.10
2018-09-02T04:00:11.121Z,18.10
2018-09-02T04:02:39.704Z,18.00
2018-09-02T04:05:08.264Z,18.00
2018-09-02T04:07:36.769Z,18.00
2018-09-02T04:10:05.379Z,17.90
2018-09-02T04:12:33.857Z,17.90
2018-09-02T04:15:02.408Z,17.80
2018-09-02T04:17:30.929Z,17.80
2018-09-02T04:19:59.531Z,17.80
2018-09-02T04:22:28.007Z,17.80
2018-09-02T04:24:56.561Z,17.70
2018-09-02T04:27:25.070Z,17.70
2018-09-02T04:29:53.617Z,17.70
2018-09-02T04:32:22.154Z,17.70
2018-09-02T04:34:50.680Z,17.60
2018-09-02T04:37:19.141Z,17.50
2018-09-02T04:39:48.670Z,17.50
2018-09-02T04:42:17.144Z,17.50
2018-09-02T04:44:45.752Z,17.50
2018-09-02T04:47:14.286Z,17.40
2018-09-02T04:49:42.816Z,17.40
2018-09-02T04:52:11.398Z,17.30
2018-09-02T04:54:39.933Z,17.20
2018-09-02T04:57:08.549Z,17.10
2018-09-02T04:59:37.181Z,17.00
2018-09-02T05:02:05.723Z,16.90
2018-09-02T05:04:35.237Z,16.90
2018-09-02T05:07:03.745Z,16.90
2018-09-02T05:09:32.243Z,16.90
2018-09-02T05:12:00.820Z,16.90
2018-09-02T05:14:29.409Z,16.90
2018-09-02T05:16:57.941Z,17.00
2018-09-02T05:19:26.489Z,17.10
2018-09-02T05:21:55.112Z,17.10
2018-09-02T05:24:23.691Z,17.10
2018-09-02T05:26:52.823Z,17.10
2018-09-02T05:29:21.962Z,17.10
2018-09-02T05:31:50.549Z,17.20
2018-09-02T05:34:19.052Z,17.20
2018-09-02T05:36:47.632Z,17.30
2018-09-02T05:39:16.152Z,17.40
2018-09-02T05:41:45.285Z,17.40
2018-09-02T05:44:14.797Z,17.50
2018-09-02T05:46:43.975Z,17.40
2018-09-02T05:49:12.552Z,17.50
2018-09-02T05:51:41.681Z,17.60
2018-09-02T05:54:10.227Z,17.70
2018-09-02T05:56:38.745Z,17.70
2018-09-02T05:59:07.484Z,17.60
2018-09-02T06:01:36.000Z,17.50
2018-09-02T06:04:05.529Z,17.50
2018-09-02T06:06:34.092Z,17.60
2018-09-02T06:09:02.824Z,17.70
2018-09-02T06:11:31.462Z,17.80
2018-09-02T06:14:00.042Z,18.00
2018-09-02T06:16:28.599Z,18.00
2018-09-02T06:18:57.288Z,17.90
2018-09-02T06:21:26.048Z,17.90
2018-09-02T06:23:56.454Z,18.00
2018-09-02T06:26:25.238Z,18.10
2018-09-02T06:28:54.958Z,18.20
2018-09-02T06:31:23.602Z,18.30
2018-09-02T06:33:52.297Z,18.50
2018-09-02T06:36:21.178Z,18.50
2018-09-02T06:38:49.751Z,18.40
2018-09-02T06:41:19.047Z,18.40
2018-09-02T06:43:47.744Z,18.50
2018-09-02T06:46:16.300Z,18.50
2018-09-02T06:48:44.892Z,18.70
2018-09-02T06:51:17.548Z,18.80
2018-09-02T06:53:47.879Z,18.90
2018-09-02T06:56:16.900Z,19.00
2018-09-02T08:00:38.767Z,20.60
2018-09-02T08:03:18.750Z,20.80
2018-09-02T08:05:47.502Z,21.70
2018-09-02T08:08:33.150Z,21.80
2018-09-02T08:11:01.874Z,21.90
2018-09-02T08:13:31.730Z,21.90
2018-09-02T08:16:00.448Z,21.90
2018-09-02T08:18:33.261Z,22.00
2018-09-02T08:21:31.296Z,22.10
2018-09-02T08:32:06.481Z,22.30
2018-09-02T08:52:53.074Z,22.80
2018-09-02T08:55:21.799Z,22.90
2018-09-02T08:57:56.697Z,23.30
2018-09-02T09:00:25.373Z,23.40
2018-09-02T09:02:54.646Z,23.50
2018-09-02T09:08:09.079Z,23.60
2018-09-02T09:10:37.558Z,23.70
2018-09-02T09:13:06.233Z,23.80
2018-09-02T09:15:38.029Z,23.90
2018-09-02T09:18:06.582Z,24.00
2018-09-02T09:20:35.185Z,24.10
2018-09-02T09:23:03.815Z,24.20
2018-09-02T09:25:33.139Z,24.30
2018-09-02T09:28:01.697Z,24.30
2018-09-02T09:30:35.617Z,24.20
2018-09-02T09:33:08.062Z,24.30
2018-09-02T09:35:36.962Z,24.50
2018-09-02T09:38:09.346Z,24.50
2018-09-02T09:40:42.203Z,24.70
2018-09-02T09:43:10.901Z,24.70
2018-09-02T09:45:44.012Z,24.80
2018-09-02T09:51:34.128Z,24.90
2018-09-02T09:54:02.766Z,24.90
2018-09-02T09:56:32.868Z,25.00
2018-09-02T09:59:02.286Z,25.10
2018-09-02T10:01:32.444Z,25.20
2018-09-02T10:04:01.448Z,25.20
2018-09-02T10:09:32.761Z,25.40
2018-09-02T10:12:03.759Z,25.40
2018-09-02T10:20:14.953Z,25.40
2018-09-02T10:22:44.079Z,25.50
2018-09-02T10:25:12.588Z,26.00
2018-09-02T10:27:41.462Z,26.20
2018-09-02T10:34:08.378Z,26.40
2018-09-02T10:36:41.995Z,26.30
2018-09-02T10:39:25.188Z,26.10
2018-09-02T10:42:27.362Z,26.00
2018-09-02T10:44:57.765Z,26.10
2018-09-02T10:47:41.733Z,26.20
2018-09-02T10:53:26.849Z,26.20
2018-09-02T10:56:03.995Z,26.30
2018-09-02T10:58:37.032Z,26.40
2018-09-02T11:03:57.400Z,26.50
2018-09-02T11:06:39.224Z,26.20
2018-09-02T11:09:25.283Z,26.30
2018-09-02T11:12:23.211Z,26.50
2018-09-02T11:15:02.816Z,26.70
2018-09-02T11:17:38.294Z,26.90
2018-09-02T11:20:08.280Z,27.20
2018-09-02T11:22:37.977Z,27.60
2018-09-02T11:25:06.899Z,28.00
2018-09-02T11:27:35.406Z,28.70
2018-09-02T11:30:04.032Z,28.80
2018-09-02T11:32:34.872Z,28.80
2018-09-02T11:35:03.637Z,28.60
2018-09-02T11:37:33.760Z,28.30
2018-09-02T11:40:04.082Z,28.20
2018-09-02T11:42:34.267Z,28.10
2018-09-02T11:45:02.961Z,28.00
2018-09-02T11:47:33.154Z,28.00
2018-09-02T11:50:20.022Z,27.90
2018-09-02T11:52:55.704Z,27.80
2018-09-02T11:55:25.598Z,27.70
2018-09-02T11:57:59.451Z,27.40
2018-09-02T12:00:34.936Z,27.20
2018-09-02T12:03:23.082Z,27.20
2018-09-02T12:05:51.949Z,27.20
2018-09-02T12:08:21.391Z,27.30
2018-09-02T12:10:50.168Z,27.30
2018-09-02T12:13:18.778Z,27.30
2018-09-02T12:15:47.378Z,27.30
2018-09-02T12:18:16.022Z,27.40
2018-09-02T12:20:45.898Z,27.50
2018-09-02T12:23:14.496Z,27.50
2018-09-02T12:25:52.300Z,27.60
2018-09-02T12:28:22.102Z,27.60
2018-09-02T12:30:50.756Z,27.60
2018-09-02T12:33:19.369Z,27.50
2018-09-02T12:35:47.955Z,27.40
2018-09-02T12:38:16.548Z,27.50
2018-09-02T12:40:45.876Z,27.50
2018-09-02T12:43:14.550Z,27.60
2018-09-02T12:45:47.608Z,27.70
2018-09-02T12:48:19.114Z,27.90
2018-09-02T12:50:56.691Z,28.00
2018-09-02T12:53:32.711Z,28.00
2018-09-02T12:56:03.100Z,27.80
2018-09-02T12:58:32.510Z,27.60
2018-09-02T13:07:16.945Z,27.40
2018-09-02T13:10:04.197Z,27.30
2018-09-02T13:12:43.276Z,27.70
2018-09-02T13:15:25.347Z,28.30
2018-09-02T13:18:00.952Z,29.00
2018-09-02T13:20:29.918Z,29.40
2018-09-02T13:23:27.241Z,29.50
2018-09-02T13:26:06.123Z,29.30
2018-09-02T13:29:02.985Z,29.00
2018-09-02T13:31:51.757Z,28.90
2018-09-02T13:34:24.822Z,28.60
2018-09-02T13:37:07.413Z,28.40
2018-09-02T13:39:40.462Z,28.20
2018-09-02T13:42:22.562Z,28.10
2018-09-02T13:44:57.953Z,28.10
2018-09-02T13:47:30.690Z,28.10
2018-09-02T13:50:02.510Z,28.10
2018-09-02T13:52:35.551Z,28.10
2018-09-02T14:00:51.047Z,28.00
2018-09-02T14:03:28.146Z,27.90
2018-09-02T14:06:10.658Z,27.80
2018-09-02T14:15:13.571Z,27.70
2018-09-02T14:17:52.671Z,27.60
2018-09-02T14:20:31.002Z,27.50
2018-09-02T14:23:15.920Z,27.50
2018-09-02T14:25:45.065Z,27.50
2018-09-02T14:28:16.218Z,27.50
2018-09-02T14:30:46.054Z,27.50
2018-09-02T14:33:17.647Z,27.60
2018-09-02T14:35:53.553Z,27.70
2018-09-02T14:38:25.977Z,27.90
2018-09-02T14:41:23.882Z,28.00
2018-09-02T14:43:52.694Z,28.00
2018-09-02T14:46:22.271Z,28.00
2018-09-02T14:48:50.911Z,27.90
2018-09-02T14:51:20.468Z,27.90
2018-09-02T14:53:49.138Z,27.90
2018-09-02T15:01:55.962Z,28.00
2018-09-02T15:04:30.519Z,28.20
2018-09-02T15:07:04.102Z,28.10
2018-09-02T15:12:43.598Z,27.90
2018-09-02T15:15:20.193Z,27.90
2018-09-02T15:17:55.038Z,27.90
2018-09-02T15:20:26.430Z,27.90
2018-09-02T15:22:55.568Z,27.80
2018-09-02T15:25:26.717Z,27.80
2018-09-02T15:27:55.397Z,27.80
2018-09-02T15:30:24.089Z,27.80
2018-09-02T15:32:52.702Z,27.80
2018-09-02T15:35:21.314Z,27.80
2018-09-02T15:37:49.965Z,27.80
2018-09-02T15:40:18.546Z,27.80
2018-09-02T15:42:47.207Z,27.80
2018-09-02T15:45:22.182Z,27.90
2018-09-02T15:47:50.823Z,27.90
2018-09-02T15:53:24.674Z,27.50
2018-09-02T15:57:10.210Z,27.30
2018-09-02T15:59:39.157Z,27.30
2018-09-02T16:02:11.918Z,27.40
2018-09-02T16:04:42.052Z,27.50
2018-09-02T16:07:10.840Z,27.50
2018-09-02T16:09:39.986Z,27.60
2018-09-02T16:12:08.963Z,27.70
2018-09-02T16:14:42.017Z,27.70
2018-09-02T16:17:16.025Z,27.80
2018-09-02T16:22:31.145Z,27.70
2018-09-02T16:25:00.179Z,27.40
2018-09-02T16:27:52.016Z,27.30
2018-09-02T16:30:40.335Z,27.10
2018-09-02T16:33:10.516Z,27.00
2018-09-02T16:35:40.138Z,26.90
2018-09-02T16:38:10.718Z,26.80
2018-09-02T16:40:39.443Z,26.70
2018-09-02T16:43:09.106Z,26.70
2018-09-02T16:45:38.496Z,26.60
2018-09-02T16:48:07.366Z,26.60
2018-09-02T16:50:37.335Z,26.60
2018-09-02T16:53:06.897Z,26.60
2018-09-02T16:55:43.033Z,26.60
2018-09-02T16:58:16.532Z,26.50
2018-09-02T17:00:45.336Z,26.50
2018-09-02T17:04:49.835Z,26.50
2018-09-02T17:15:54.389Z,26.60
2018-09-02T17:21:41.234Z,26.50
2018-09-02T17:24:23.977Z,26.40
2018-09-02T17:26:55.029Z,26.40
2018-09-02T17:29:26.892Z,26.30
2018-09-02T17:31:55.661Z,26.30
2018-09-02T17:34:24.330Z,26.20
2018-09-02T17:36:54.070Z,26.20
2018-09-02T17:39:25.046Z,26.20
2018-09-02T17:41:53.770Z,26.00
2018-09-02T17:44:24.606Z,25.90
2018-09-02T18:33:02.500Z,25.30
2018-09-02T19:25:36.738Z,25.10
2018-09-02T19:35:06.417Z,25.20
2018-09-02T19:37:48.378Z,25.20
2018-09-02T21:08:25.472Z,24.70
2018-09-02T21:10:53.998Z,24.70
2018-09-02T21:17:14.532Z,24.60
2018-09-02T21:19:46.707Z,24.60
2018-09-02T21:22:15.337Z,24.60
2018-09-02T21:24:44.147Z,24.60
2018-09-02T21:27:12.677Z,24.50
2018-09-02T21:29:42.328Z,24.40
2018-09-02T21:32:10.926Z,24.30
2018-09-02T21:34:39.531Z,24.30
2018-09-02T21:37:08.289Z,24.30
2018-09-02T21:39:36.822Z,24.20
2018-09-02T21:42:05.626Z,24.20
2018-09-02T21:44:34.701Z,24.10
2018-09-02T21:47:03.259Z,24.10
2018-09-02T21:49:31.924Z,23.90
2018-09-02T21:52:01.507Z,23.90
2018-09-02T21:54:30.137Z,23.90
2018-09-02T21:56:59.682Z,23.90
2018-09-02T21:59:28.188Z,23.80
2018-09-02T22:01:56.809Z,23.90
2018-09-02T22:04:25.372Z,23.90
2018-09-02T22:06:53.886Z,23.80
2018-09-02T22:09:22.555Z,23.80
2018-09-02T22:11:51.303Z,23.80
2018-09-02T22:14:19.928Z,23.80
2018-09-02T22:16:48.589Z,23.80
2018-09-02T22:19:17.197Z,23.80
2018-09-02T22:21:45.760Z,23.90
2018-09-02T22:24:14.721Z,23.90
2018-09-02T22:26:43.394Z,23.90
2018-09-02T22:29:12.022Z,23.90
2018-09-02T22:31:40.612Z,23.90
2018-09-02T22:34:09.200Z,23.90
2018-09-02T22:36:37.700Z,23.90
2018-09-02T22:39:07.637Z,23.90
2018-09-02T22:41:36.270Z,23.90
2018-09-02T22:44:04.888Z,23.80
2018-09-02T22:46:33.374Z,23.90
2018-09-02T22:49:02.105Z,23.80
2018-09-02T22:51:31.663Z,23.70
2018-09-02T22:54:00.203Z,23.60
2018-09-02T22:56:28.744Z,23.60
2018-09-02T22:58:57.342Z,23.60
2018-09-02T23:01:25.993Z,23.70
2018-09-02T23:03:54.525Z,23.70
2018-09-02T23:06:23.106Z,23.80
2018-09-02T23:08:51.668Z,23.80
2018-09-02T23:11:20.338Z,23.90
2018-09-02T23:13:48.842Z,23.90
2018-09-02T23:16:17.429Z,23.90
2018-09-02T23:18:45.945Z,23.90
2018-09-02T23:21:14.506Z,23.90
2018-09-02T23:23:43.060Z,23.90
2018-09-02T23:26:12.621Z,23.90
2018-09-02T23:28:41.236Z,24.00
2018-09-02T23:31:09.745Z,23.90
2018-09-02T23:33:38.271Z,23.90
2018-09-02T23:36:06.811Z,23.90
2018-09-02T23:38:36.346Z,23.90
2018-09-02T23:41:05.006Z,23.90
2018-09-02T23:43:33.667Z,23.90
2018-09-02T23:46:03.157Z,24.00
2018-09-02T23:48:31.679Z,24.00
2018-09-02T23:51:00.248Z,24.00
2018-09-02T23:53:28.826Z,24.00
2018-09-02T23:55:57.436Z,23.90
2018-09-02T23:58:25.947Z,24.00
